createdAt,value
2022-09-05T00:00:14.842Z,98550.06
2022-09-05T00:03:12.972Z,98556.84
2022-09-05T00:06:02.760Z,98557.91
2022-09-05T00:08:52.851Z,98550.72
2022-09-05T00:11:46.370Z,98548.28
2022-09-05T00:15:17.576Z,98550.16
2022-09-05T00:19:05.228Z,98552.44
2022-09-05T00:24:19.621Z,98568.47
2022-09-05T00:24:36.442Z,98561.69
2022-09-05T00:27:06.062Z,98555.72
2022-09-05T00:31:08.639Z,98561.03
2022-09-05T00:33:17.052Z,98550.94
2022-09-05T00:36:01.009Z,98553.00
2022-09-05T00:38:36.706Z,98550.13
2022-09-05T00:41:12.664Z,98537.53
2022-09-05T00:43:42.877Z,98540.22
2022-09-05T00:46:32.019Z,98542.69
2022-09-05T00:49:29.785Z,98548.25
2022-09-05T00:52:22.087Z,98553.00
2022-09-05T00:55:14.223Z,98548.91
2022-09-05T00:57:59.730Z,98550.34
2022-09-05T01:00:59.132Z,98557.53
2022-09-05T01:03:34.958Z,98554.09
2022-09-05T01:06:15.387Z,98550.00
2022-09-05T01:09:10.366Z,98547.50
2022-09-05T01:11:44.898Z,98546.72
2022-09-05T01:14:44.605Z,98543.03
2022-09-05T01:17:25.130Z,98546.28
2022-09-05T01:20:22.133Z,98545.03
2022-09-05T01:23:00.947Z,98543.78
2022-09-05T01:26:09.782Z,98542.75
2022-09-05T01:29:18.467Z,98538.22
2022-09-05T01:32:05.852Z,98535.13
2022-09-05T01:35:01.436Z,98537.41
2022-09-05T01:37:37.534Z,98536.97
2022-09-05T01:40:27.705Z,98525.53
2022-09-05T01:43:04.831Z,98538.69
2022-09-05T01:45:54.634Z,98534.94
2022-09-05T01:48:32.447Z,98534.06
2022-09-05T01:51:36.930Z,98518.19
2022-09-05T01:54:45.821Z,98522.50
2022-09-05T01:57:35.808Z,98521.91
2022-09-05T02:00:24.796Z,98518.19
2022-09-05T02:02:51.968Z,98508.78
2022-09-05T02:05:56.363Z,98518.72
2022-09-05T02:08:41.812Z,98521.03
2022-09-05T02:11:13.704Z,98520.00
2022-09-05T02:14:08.443Z,98531.69
2022-09-05T02:16:44.696Z,98528.25
2022-09-05T02:19:30.741Z,98523.47
2022-09-05T02:22:10.216Z,98527.97
2022-09-05T02:24:41.267Z,98523.00
2022-09-05T02:27:10.933Z,98522.59
2022-09-05T02:30:10.054Z,98512.69
2022-09-05T02:32:39.236Z,98510.84
2022-09-05T02:35:10.098Z,98509.81
2022-09-05T02:39:51.951Z,98513.31
2022-09-05T02:45:05.997Z,98512.06
2022-09-05T02:45:16.671Z,98512.50
2022-09-05T02:47:05.258Z,98514.75
2022-09-05T02:50:20.573Z,98514.38
2022-09-05T02:57:33.713Z,98508.16
2022-09-05T02:57:42.872Z,98497.66
2022-09-05T02:59:11.447Z,98507.16
2022-09-05T03:02:00.058Z,98500.38
2022-09-05T03:04:47.173Z,98497.91
2022-09-05T03:07:34.763Z,98498.78
2022-09-05T03:10:44.366Z,98499.00
2022-09-05T03:13:48.928Z,98501.84
2022-09-05T03:16:44.900Z,98500.47
2022-09-05T03:20:01.217Z,98495.94
2022-09-05T03:23:01.787Z,98505.22
2022-09-05T03:25:40.697Z,98513.47
2022-09-05T03:28:44.898Z,98520.25
2022-09-05T03:31:53.033Z,98519.03
2022-09-05T03:34:38.252Z,98531.59
2022-09-05T03:37:27.013Z,98529.28
2022-09-05T03:40:20.875Z,98533.19
2022-09-05T03:42:53.832Z,98542.28
2022-09-05T03:45:37.159Z,98537.31
2022-09-05T03:48:45.787Z,98556.66
2022-09-05T03:57:12.858Z,98556.03
2022-09-05T03:57:27.820Z,98558.47
2022-09-05T03:58:56.484Z,98550.47
2022-09-05T04:07:08.779Z,98556.22
2022-09-05T04:08:16.280Z,98547.59
2022-09-05T04:08:28.798Z,98557.44
2022-09-05T04:10:27.076Z,98564.47
2022-09-05T04:13:04.082Z,98553.97
2022-09-05T04:15:39.987Z,98554.34
2022-09-05T04:18:18.620Z,98556.78
2022-09-05T04:21:04.807Z,98557.84
2022-09-05T04:23:47.366Z,98558.41
2022-09-05T04:26:31.552Z,98557.38
2022-09-05T04:29:03.380Z,98561.50
2022-09-05T04:31:39.297Z,98554.81
2022-09-05T04:34:28.635Z,98551.06
2022-09-05T04:37:07.990Z,98546.88
2022-09-05T04:39:35.999Z,98549.50
2022-09-05T04:42:18.714Z,98549.94
2022-09-05T04:45:03.353Z,98546.19
2022-09-05T04:47:38.404Z,98540.94
2022-09-05T04:50:10.900Z,98529.78
2022-09-05T04:53:15.174Z,98521.19
2022-09-05T04:55:50.427Z,98521.94
2022-09-05T05:00:06.204Z,98515.19
2022-09-05T05:06:11.229Z,98519.28
2022-09-05T05:06:14.282Z,98522.94
2022-09-05T05:07:26.035Z,98505.16
2022-09-05T05:11:36.524Z,98508.72
2022-09-05T05:17:58.392Z,98509.38
2022-09-05T05:18:14.368Z,98503.72
2022-09-05T05:19:21.961Z,98512.03
2022-09-05T05:21:54.317Z,98500.50
2022-09-05T05:24:25.676Z,98506.81
2022-09-05T05:27:01.645Z,98504.00
2022-09-05T05:29:43.822Z,98507.41
2022-09-05T05:32:31.628Z,98509.31
2022-09-05T05:35:13.138Z,98505.09
2022-09-05T05:37:45.989Z,98508.13
2022-09-05T05:40:15.917Z,98509.53
2022-09-05T05:42:44.685Z,98507.41
2022-09-05T05:45:32.981Z,98502.78
2022-09-05T05:48:04.722Z,98504.25
2022-09-05T05:50:52.771Z,98499.56
2022-09-05T05:53:45.447Z,98506.06
2022-09-05T05:56:19.692Z,98511.72
2022-09-05T05:59:00.750Z,98499.38
2022-09-05T06:01:52.458Z,98505.78
2022-09-05T06:04:46.706Z,98507.59
2022-09-05T06:07:22.390Z,98521.25
2022-09-05T06:14:50.973Z,98525.63
2022-09-05T06:15:04.494Z,98525.09
2022-09-05T06:16:33.308Z,98529.66
2022-09-05T06:19:59.653Z,98525.41
2022-09-05T06:23:01.327Z,98531.06
2022-09-05T06:25:42.784Z,98537.50
2022-09-05T06:28:26.490Z,98546.41
2022-09-05T06:31:29.039Z,98547.00
2022-09-05T06:34:32.821Z,98567.34
2022-09-05T06:37:30.644Z,98564.31
2022-09-05T06:40:23.712Z,98568.66
2022-09-05T06:43:12.139Z,98575.16
2022-09-05T06:46:02.215Z,98582.63
2022-09-05T06:49:29.940Z,98585.91
2022-09-05T06:51:37.889Z,98588.69
2022-09-05T06:54:36.359Z,98600.28
2022-09-05T06:57:44.131Z,98606.84
2022-09-05T07:00:24.164Z,98608.63
2022-09-05T07:03:00.210Z,98612.38
2022-09-05T07:05:39.439Z,98617.75
2022-09-05T07:08:48.377Z,98610.41
2022-09-05T07:11:18.586Z,98620.16
2022-09-05T07:14:09.333Z,98616.31
2022-09-05T07:17:08.407Z,98627.69
2022-09-05T07:19:44.639Z,98629.91
2022-09-05T07:22:48.561Z,98618.47
2022-09-05T07:25:26.278Z,98615.28
2022-09-05T07:28:29.739Z,98618.56
2022-09-05T07:30:51.914Z,98624.44
2022-09-05T07:33:22.129Z,98623.63
2022-09-05T07:35:51.545Z,98626.47
2022-09-05T07:38:49.069Z,98615.16
2022-09-05T07:41:28.507Z,98610.75
2022-09-05T07:44:04.751Z,98620.06
2022-09-05T07:46:35.603Z,98623.34
2022-09-05T07:49:12.329Z,98617.88
2022-09-05T07:56:55.497Z,98617.75
2022-09-05T07:57:00.270Z,98615.75
2022-09-05T07:57:50.739Z,98614.03
2022-09-05T08:00:26.412Z,98607.31
2022-09-05T08:02:57.766Z,98607.03
2022-09-05T08:05:34.804Z,98606.13
2022-09-05T08:08:08.089Z,98605.91
2022-09-05T08:11:25.629Z,98608.66
2022-09-05T08:14:38.557Z,98614.19
2022-09-05T08:16:57.974Z,98609.69
2022-09-05T08:19:48.240Z,98607.31
2022-09-05T08:22:22.175Z,98605.66
2022-09-05T08:25:05.215Z,98610.00
2022-09-05T08:27:44.712Z,98603.75
2022-09-05T08:30:26.203Z,98597.41
2022-09-05T08:33:11.913Z,98599.72
2022-09-05T08:35:53.281Z,98601.97
2022-09-05T08:38:40.477Z,98600.94
2022-09-05T08:41:43.220Z,98608.94
2022-09-05T08:46:43.590Z,98606.94
2022-09-05T08:47:32.423Z,98602.09
2022-09-05T08:50:28.130Z,98600.03
2022-09-05T08:53:46.238Z,98598.47
2022-09-05T08:56:21.288Z,98598.97
2022-09-05T08:59:31.883Z,98599.16
2022-09-05T09:02:46.573Z,98604.53
2022-09-05T09:06:12.027Z,98601.66
2022-09-05T09:08:53.721Z,98600.81
2022-09-05T09:11:26.409Z,98596.81
2022-09-05T09:13:55.599Z,98595.59
2022-09-05T09:16:37.504Z,98595.03
2022-09-05T09:19:12.390Z,98605.34
2022-09-05T09:22:29.171Z,98599.28
2022-09-05T09:25:17.828Z,98596.75
2022-09-05T09:28:48.242Z,98600.88
2022-09-05T09:30:42.536Z,98586.59
2022-09-05T09:33:20.375Z,98580.53
2022-09-05T09:36:07.807Z,98588.91
2022-09-05T09:39:19.056Z,98592.09
2022-09-05T09:42:32.465Z,98587.88
2022-09-05T10:17:48.126Z,98587.06
2022-09-05T10:20:39.575Z,98589.03
2022-09-05T10:23:18.515Z,98589.88
2022-09-05T10:25:51.396Z,98583.63
2022-09-05T10:28:24.257Z,98573.16
2022-09-05T10:34:16.016Z,98582.75
2022-09-05T10:35:15.498Z,98573.28
2022-09-05T10:37:12.365Z,98573.53
2022-09-05T10:39:47.177Z,98572.72
2022-09-05T10:42:21.062Z,98568.56
2022-09-05T10:44:56.148Z,98570.41
2022-09-05T10:47:39.323Z,98563.09
2022-09-05T10:50:27.572Z,98568.09
2022-09-05T10:53:05.940Z,98562.09
2022-09-05T10:55:54.713Z,98560.81
2022-09-05T11:02:19.132Z,98565.97
2022-09-05T11:02:30.040Z,98556.47
2022-09-05T11:05:24.537Z,98559.16
2022-09-05T11:07:59.143Z,98554.75
2022-09-05T11:10:28.975Z,98560.47
2022-09-05T11:13:11.464Z,98562.97
2022-09-05T11:16:12.732Z,98564.91
2022-09-05T11:18:55.293Z,98560.56
2022-09-05T11:21:52.736Z,98561.09
2022-09-05T11:24:50.637Z,98553.19
2022-09-05T11:27:45.269Z,98554.88
2022-09-05T11:30:28.632Z,98563.38
2022-09-05T11:37:40.067Z,98553.41
2022-09-05T11:39:55.338Z,98556.34
2022-09-05T11:40:31.497Z,98560.72
2022-09-05T11:43:25.138Z,98561.00
2022-09-05T11:46:00.643Z,98557.50
2022-09-05T11:48:53.514Z,98552.50
2022-09-05T11:51:39.899Z,98556.13
2022-09-05T11:54:26.730Z,98546.38
2022-09-05T11:57:33.556Z,98549.13
2022-09-05T12:00:32.591Z,98549.69
2022-09-05T12:03:41.474Z,98549.41
2022-09-05T12:06:23.914Z,98543.69
2022-09-05T12:08:53.077Z,98551.78
2022-09-05T12:11:43.951Z,98550.97
2022-09-05T12:14:32.848Z,98547.19
2022-09-05T12:17:16.801Z,98544.41
2022-09-05T12:19:59.280Z,98544.91
2022-09-05T12:22:44.276Z,98552.75
2022-09-05T12:25:45.817Z,98553.97
2022-09-05T12:29:27.835Z,98555.16
2022-09-05T12:33:33.965Z,98554.06
2022-09-05T12:36:06.119Z,98550.56
2022-09-05T12:40:28.631Z,98555.09
2022-09-05T12:41:37.512Z,98557.84
2022-09-05T12:44:00.735Z,98544.09
2022-09-05T12:46:24.288Z,98541.88
2022-09-05T12:49:07.142Z,98545.75
2022-09-05T12:51:46.828Z,98550.00
2022-09-05T12:54:34.654Z,98543.03
2022-09-05T13:00:50.910Z,98533.31
2022-09-05T13:03:07.761Z,98538.81
2022-09-05T13:03:28.672Z,98542.38
2022-09-05T13:06:08.951Z,98537.00
2022-09-05T13:08:59.136Z,98529.19
2022-09-05T13:14:53.191Z,98533.13
2022-09-05T13:15:03.007Z,98531.47
2022-09-05T13:17:14.308Z,98526.09
2022-09-05T13:19:51.431Z,98534.50
2022-09-05T13:22:21.363Z,98533.41
2022-09-05T13:24:58.629Z,98537.19
2022-09-05T13:27:32.050Z,98537.13
2022-09-05T13:36:17.301Z,98529.28
2022-09-05T13:38:03.240Z,98526.56
2022-09-05T13:38:12.952Z,98529.53
2022-09-05T13:39:00.948Z,98533.91
2022-09-05T13:41:31.782Z,98526.28
2022-09-05T13:44:25.534Z,98527.03
2022-09-05T13:47:30.255Z,98523.81
2022-09-05T13:50:36.268Z,98530.41
2022-09-05T13:53:24.616Z,98531.78
2022-09-05T13:56:03.004Z,98531.78
2022-09-05T13:58:45.442Z,98538.81
2022-09-05T14:02:24.785Z,98541.56
2022-09-05T14:05:08.433Z,98542.91
2022-09-05T14:08:18.926Z,98538.50
2022-09-05T14:11:18.915Z,98544.75
2022-09-05T14:14:16.052Z,98540.94
2022-09-05T14:17:50.206Z,98539.06
2022-09-05T14:20:10.152Z,98551.03
2022-09-05T14:22:51.356Z,98555.19
2022-09-05T14:25:26.934Z,98545.00
2022-09-05T14:27:55.269Z,98541.59
2022-09-05T14:35:15.039Z,98552.38
2022-09-05T14:37:37.071Z,98549.25
2022-09-05T14:37:49.876Z,98551.13
2022-09-05T14:40:19.310Z,98552.56
2022-09-05T14:43:15.257Z,98557.47
2022-09-05T14:46:04.106Z,98550.34
2022-09-05T14:49:02.048Z,98553.91
2022-09-05T14:51:43.144Z,98561.09
2022-09-05T15:02:38.918Z,98553.47
2022-09-05T15:02:50.860Z,98555.03
2022-09-05T15:03:03.565Z,98564.09
2022-09-05T15:05:32.101Z,98559.97
2022-09-05T15:08:52.568Z,98559.19
2022-09-05T15:12:18.327Z,98564.81
2022-09-05T15:13:57.386Z,98562.19
2022-09-05T15:16:25.691Z,98557.84
2022-09-05T15:18:53.469Z,98564.78
2022-09-05T15:21:34.617Z,98560.81
2022-09-05T15:24:04.363Z,98555.13
2022-09-05T15:26:57.612Z,98551.75
2022-09-05T15:29:35.767Z,98552.53
2022-09-05T15:32:14.023Z,98551.72
2022-09-05T15:34:41.010Z,98554.72
2022-09-05T15:37:30.402Z,98548.47
2022-09-05T15:40:01.680Z,98547.06
2022-09-05T15:42:34.676Z,98563.38
2022-09-05T15:45:10.247Z,98560.38
2022-09-05T15:47:43.868Z,98560.59
2022-09-05T15:50:21.332Z,98555.66
2022-09-05T15:52:53.465Z,98559.97
2022-09-05T15:55:25.396Z,98547.44
2022-09-05T15:58:05.953Z,98550.47
2022-09-05T16:00:45.322Z,98546.13
2022-09-05T16:03:48.347Z,98544.16
2022-09-05T16:10:42.369Z,98546.44
2022-09-05T16:10:50.979Z,98548.09
2022-09-05T16:12:14.291Z,98547.50
2022-09-05T16:15:30.100Z,98559.31
2022-09-05T16:23:20.018Z,98554.34
2022-09-05T16:23:26.769Z,98553.28
2022-09-05T16:23:50.031Z,98563.59
2022-09-05T16:26:26.123Z,98564.97
2022-09-05T16:29:05.982Z,98568.19
2022-09-05T16:31:54.167Z,98565.75
2022-09-05T16:34:44.393Z,98563.16
2022-09-05T16:37:38.224Z,98560.41
2022-09-05T16:40:28.664Z,98571.38
2022-09-05T16:43:04.429Z,98569.09
2022-09-05T16:45:57.486Z,98573.97
2022-09-05T16:48:42.575Z,98574.69
2022-09-05T16:51:42.826Z,98576.41
2022-09-05T16:54:35.397Z,98574.94
2022-09-05T16:57:06.759Z,98572.25
2022-09-05T16:59:38.342Z,98578.03
2022-09-05T17:02:08.483Z,98585.34
2022-09-05T17:05:03.238Z,98591.59
2022-09-05T17:07:49.346Z,98593.44
2022-09-05T17:10:25.737Z,98596.38
2022-09-05T17:12:54.211Z,98599.13
2022-09-05T17:15:29.155Z,98599.19
2022-09-05T17:18:22.008Z,98599.41
2022-09-05T17:20:53.699Z,98605.13
2022-09-05T17:29:17.194Z,98609.84
2022-09-05T17:29:32.594Z,98622.84
2022-09-05T17:29:34.490Z,98616.81
2022-09-05T17:31:59.264Z,98614.78
2022-09-05T17:34:46.912Z,98620.56
2022-09-05T17:37:23.197Z,98623.59
2022-09-05T17:39:55.628Z,98629.31
2022-09-05T17:42:59.792Z,98628.16
2022-09-05T17:45:34.116Z,98633.66
2022-09-05T17:48:01.800Z,98638.50
2022-09-05T17:50:33.367Z,98639.22
2022-09-05T17:53:26.225Z,98637.72
2022-09-05T17:55:54.720Z,98640.78
2022-09-05T17:58:23.055Z,98645.28
2022-09-05T18:00:54.734Z,98639.75
2022-09-05T18:03:37.213Z,98643.34
2022-09-05T18:06:16.436Z,98642.00
2022-09-05T18:08:46.248Z,98633.38
2022-09-05T18:11:25.800Z,98636.59
2022-09-05T18:13:55.146Z,98637.66
2022-09-05T18:16:48.299Z,98642.88
2022-09-05T18:19:57.736Z,98638.63
2022-09-05T18:22:30.834Z,98638.13
2022-09-05T18:25:30.604Z,98640.94
2022-09-05T18:28:22.488Z,98644.28
2022-09-05T18:30:50.051Z,98645.13
2022-09-05T18:33:54.462Z,98649.03
2022-09-05T18:36:25.962Z,98647.25
2022-09-05T18:39:26.058Z,98652.78
2022-09-05T18:42:14.812Z,98646.41
2022-09-05T18:45:00.812Z,98650.91
2022-09-05T18:47:36.073Z,98654.44
2022-09-05T18:50:26.979Z,98656.03
2022-09-05T18:53:10.134Z,98644.31
2022-09-05T18:56:20.763Z,98646.38
2022-09-05T18:59:15.708Z,98654.94
2022-09-05T19:02:01.006Z,98643.16
2022-09-05T19:04:49.877Z,98653.34
2022-09-05T19:07:39.491Z,98647.75
2022-09-05T19:10:34.871Z,98645.06
2022-09-05T19:13:17.490Z,98651.91
2022-09-05T19:16:34.887Z,98651.53
2022-09-05T19:19:06.560Z,98653.81
2022-09-05T19:21:34.508Z,98651.94
2022-09-05T19:24:07.944Z,98654.50
2022-09-05T19:26:35.372Z,98650.06
2022-09-05T19:36:59.858Z,98640.75
2022-09-05T19:37:06.083Z,98647.38
2022-09-05T19:37:07.381Z,98643.81
2022-09-05T19:37:48.995Z,98652.75
2022-09-05T19:45:32.796Z,98644.78
2022-09-05T19:47:36.823Z,98639.25
2022-09-05T19:47:47.966Z,98646.28
2022-09-05T19:49:13.445Z,98649.44
2022-09-05T19:51:42.058Z,98644.50
2022-09-05T19:54:32.889Z,98644.63
2022-09-05T19:57:02.738Z,98640.72
2022-09-05T19:59:38.485Z,98631.88
2022-09-05T20:02:12.133Z,98632.09
2022-09-05T20:04:52.947Z,98622.78
2022-09-05T20:07:25.889Z,98616.84
2022-09-05T20:09:54.572Z,98611.59
2022-09-05T20:12:25.367Z,98608.03
2022-09-05T20:14:52.437Z,98601.16
2022-09-05T20:17:19.443Z,98599.78
2022-09-05T20:19:47.703Z,98597.56
2022-09-05T20:22:48.709Z,98595.16
2022-09-05T20:25:36.222Z,98589.41
2022-09-05T20:28:14.747Z,98593.94
2022-09-05T20:30:45.378Z,98598.97
2022-09-05T20:33:32.913Z,98608.78
2022-09-05T20:43:12.494Z,98597.66
2022-09-05T20:43:18.213Z,98603.66
2022-09-05T20:43:20.288Z,98600.88
2022-09-05T20:44:50.710Z,98602.47
2022-09-05T20:53:08.366Z,98608.28
2022-09-05T20:54:07.145Z,98594.09
2022-09-05T20:54:14.957Z,98600.81
2022-09-05T20:56:28.094Z,98594.72
2022-09-05T20:58:58.603Z,98589.97
2022-09-05T21:01:27.239Z,98595.06
2022-09-05T21:04:02.555Z,98593.59
2022-09-05T21:06:34.830Z,98588.38
2022-09-05T21:09:24.997Z,98576.59
2022-09-05T21:11:58.920Z,98575.56
2022-09-05T21:14:29.058Z,98577.16
2022-09-05T21:17:04.922Z,98579.63
2022-09-05T21:19:53.526Z,98583.00
2022-09-05T21:22:21.338Z,98576.50
2022-09-05T21:25:07.486Z,98574.50
2022-09-05T21:27:34.587Z,98581.66
2022-09-05T21:30:40.700Z,98582.00
2022-09-05T21:33:19.047Z,98589.28
2022-09-05T21:35:52.805Z,98586.16
2022-09-05T21:38:32.158Z,98583.16
2022-09-05T21:41:03.667Z,98587.09
2022-09-05T21:47:34.314Z,98589.16
2022-09-05T21:47:41.737Z,98587.63
2022-09-05T21:49:09.062Z,98590.38
2022-09-05T21:51:37.266Z,98591.84
2022-09-05T21:59:16.780Z,98593.97
2022-09-05T21:59:27.447Z,98593.63
2022-09-05T21:59:50.277Z,98594.50
2022-09-05T22:02:17.962Z,98598.59
2022-09-05T22:04:47.253Z,98593.06
2022-09-05T22:07:27.387Z,98591.19
2022-09-05T22:10:00.943Z,98591.19
2022-09-05T22:12:33.678Z,98584.59
2022-09-05T22:15:26.510Z,98582.75
2022-09-05T22:17:49.468Z,98588.88
2022-09-05T22:20:20.369Z,98580.75
2022-09-05T22:22:56.115Z,98575.81
2022-09-05T22:25:32.934Z,98574.56
2022-09-05T22:28:12.900Z,98568.00
2022-09-05T22:30:40.118Z,98572.78
2022-09-05T22:33:08.038Z,98573.59
2022-09-05T22:35:39.174Z,98565.75
2022-09-05T22:38:12.466Z,98570.00
2022-09-05T22:40:41.766Z,98570.63
2022-09-05T22:43:10.696Z,98562.31
2022-09-05T22:45:39.241Z,98562.69
2022-09-05T22:48:10.916Z,98568.84
2022-09-05T22:50:38.437Z,98576.25
2022-09-05T22:53:07.474Z,98568.25
2022-09-05T22:55:39.429Z,98569.78
2022-09-05T22:58:08.841Z,98562.13
2022-09-05T23:00:36.483Z,98566.69
2022-09-05T23:03:06.022Z,98562.56
2022-09-05T23:05:33.945Z,98555.78
2022-09-05T23:08:01.486Z,98554.28
2022-09-05T23:10:30.261Z,98545.28
2022-09-05T23:12:57.628Z,98553.06
2022-09-05T23:15:25.782Z,98552.16
2022-09-05T23:17:54.728Z,98544.16
2022-09-05T23:20:22.694Z,98546.06
2022-09-05T23:22:49.864Z,98545.25
2022-09-05T23:25:17.925Z,98551.38
2022-09-05T23:27:45.660Z,98551.31
2022-09-05T23:30:13.180Z,98548.97
2022-09-05T23:32:47.820Z,98544.75
2022-09-05T23:35:15.778Z,98539.03
2022-09-05T23:37:46.687Z,98538.84
2022-09-05T23:40:20.209Z,98547.38
2022-09-05T23:42:55.233Z,98540.53
2022-09-05T23:45:24.654Z,98545.22
2022-09-05T23:47:52.404Z,98542.88
2022-09-05T23:50:20.355Z,98532.50
2022-09-05T23:52:48.284Z,98525.44
2022-09-05T23:55:17.970Z,98531.03
2022-09-05T23:57:45.855Z,98540.94
